Time;durP1;ratioP1;P1;durP2;ratioP2;P2;SDS_P1;SDS_P2;PMS_P1;PMS_P2;Temp;Humidity;BMP_temperature;BMP_pressure;BME280_temperature;BME280_humidity;BME280_pressure;Samples;Min_cycle;Max_cycle;Signal;HPM_P1;HPM_P2
2023/12/18 00:00:35;;;;;;;27.57;15.90;;;;;;;;;;5035547;28;20527;-80
2023/12/18 00:03:02;;;;;;;32.10;17.50;;;;;;;;;;5033489;28;20471;-82
2023/12/18 00:05:30;;;;;;;28.87;16.87;;;;;;;;;;5035081;28;20457;-80
2023/12/18 00:07:56;;;;;;;33.10;17.13;;;;;;;;;;5034808;28;20556;-82
2023/12/18 00:10:23;;;;;;;36.30;17.13;;;;;;;;;;5035413;28;20792;-82
2023/12/18 00:12:49;;;;;;;36.23;17.50;;;;;;;;;;5033476;28;20465;-83
2023/12/18 00:15:16;;;;;;;29.10;17.27;;;;;;;;;;5035232;28;20453;-82
2023/12/18 00:17:43;;;;;;;31.50;16.43;;;;;;;;;;5033291;28;20460;-81
2023/12/18 00:20:10;;;;;;;36.53;17.50;;;;;;;;;;5034991;28;20437;-81
2023/12/18 00:22:39;;;;;;;34.43;18.50;;;;;;;;;;5033125;28;20453;-81
2023/12/18 00:25:06;;;;;;;34.67;17.37;;;;;;;;;;5034673;28;20982;-82
2023/12/18 00:27:32;;;;;;;42.70;17.23;;;;;;;;;;5034117;28;21034;-81
2023/12/18 00:29:58;;;;;;;41.10;18.87;;;;;;;;;;5034948;28;20488;-81
2023/12/18 00:32:25;;;;;;;31.80;18.93;;;;;;;;;;5033573;28;20807;-82
2023/12/18 00:34:51;;;;;;;31.40;17.20;;;;;;;;;;5034406;28;20492;-81
2023/12/18 00:37:18;;;;;;;30.73;18.57;;;;;;;;;;5034164;28;20536;-82
2023/12/18 00:39:46;;;;;;;32.87;17.50;;;;;;;;;;5034148;28;20443;-81
2023/12/18 00:42:13;;;;;;;32.70;18.00;;;;;;;;;;5033824;28;20932;-81
2023/12/18 00:44:39;;;;;;;31.93;18.03;;;;;;;;;;5034140;28;20472;-81
2023/12/18 00:47:06;;;;;;;32.77;18.00;;;;;;;;;;5034471;28;20436;-81
2023/12/18 00:49:32;;;;;;;29.80;16.20;;;;;;;;;;5034294;28;20471;-81
2023/12/18 00:51:59;;;;;;;27.03;16.93;;;;;;;;;;5034141;28;20441;-81
2023/12/18 00:54:25;;;;;;;38.10;17.70;;;;;;;;;;5033548;28;20488;-81
2023/12/18 00:56:53;;;;;;;37.93;18.37;;;;;;;;;;5033569;28;20816;-82
2023/12/18 00:59:20;;;;;;;37.30;19.33;;;;;;;;;;5034036;28;20476;-82
2023/12/18 01:01:46;;;;;;;36.10;17.10;;;;;;;;;;5034075;28;20433;-81
2023/12/18 01:04:13;;;;;;;31.10;17.33;;;;;;;;;;5033433;28;20986;-81
2023/12/18 01:06:39;;;;;;;26.10;18.20;;;;;;;;;;5033697;28;20443;-81
2023/12/18 01:09:06;;;;;;;41.23;19.43;;;;;;;;;;5033772;28;20476;-82
2023/12/18 01:11:32;;;;;;;29.30;18.43;;;;;;;;;;5033970;28;20532;-82
2023/12/18 01:14:01;;;;;;;32.00;17.37;;;;;;;;;;5015437;28;21982;-82
2023/12/18 01:16:28;;;;;;;34.07;17.33;;;;;;;;;;5033844;28;20516;-81
2023/12/18 01:18:57;;;;;;;31.30;17.57;;;;;;;;;;5033126;28;20496;-81
2023/12/18 01:21:24;;;;;;;39.37;18.13;;;;;;;;;;5033516;28;20996;-81
2023/12/18 01:23:52;;;;;;;31.07;19.40;;;;;;;;;;5031989;28;20472;-81
2023/12/18 01:26:18;;;;;;;36.70;21.23;;;;;;;;;;5033873;28;20440;-82
2023/12/18 01:28:45;;;;;;;31.17;19.57;;;;;;;;;;5032926;28;20469;-81
2023/12/18 01:31:22;;;;;;;34.90;19.63;;;;;;;;;;5033809;28;20448;-82
2023/12/18 01:33:49;;;;;;;47.33;21.17;;;;;;;;;;5032870;28;20478;-82
2023/12/18 01:36:15;;;;;;;42.13;20.60;;;;;;;;;;5032012;28;20441;-82
2023/12/18 01:38:43;;;;;;;37.73;20.20;;;;;;;;;;5032424;28;20464;-81
2023/12/18 01:41:10;;;;;;;35.37;20.60;;;;;;;;;;5031943;28;20448;-82
2023/12/18 01:43:36;;;;;;;35.37;20.23;;;;;;;;;;5032524;28;20471;-82
2023/12/18 01:46:03;;;;;;;38.43;20.60;;;;;;;;;;5033376;28;20465;-82
2023/12/18 01:48:32;;;;;;;34.03;21.07;;;;;;;;;;5030266;28;20853;-81
2023/12/18 01:50:59;;;;;;;37.10;21.40;;;;;;;;;;5033440;28;20439;-81
2023/12/18 01:53:26;;;;;;;36.07;19.23;;;;;;;;;;5032685;28;20477;-81
2023/12/18 01:55:53;;;;;;;44.20;21.17;;;;;;;;;;5033233;28;20461;-81
2023/12/18 01:58:20;;;;;;;45.60;21.20;;;;;;;;;;5032341;28;20465;-81
2023/12/18 02:00:47;;;;;;;31.43;19.17;;;;;;;;;;5032901;28;20437;-82
2023/12/18 02:03:15;;;;;;;32.43;19.20;;;;;;;;;;5032541;28;20475;-82
2023/12/18 02:05:45;;;;;;;30.53;19.13;;;;;;;;;;5033255;28;20547;-81
2023/12/18 02:08:11;;;;;;;44.03;22.27;;;;;;;;;;5033148;28;20477;-81
2023/12/18 02:10:39;;;;;;;44.07;19.57;;;;;;;;;;5033196;28;20445;-81
2023/12/18 02:13:05;;;;;;;35.63;19.70;;;;;;;;;;5033085;28;20484;-82
2023/12/18 02:15:31;;;;;;;28.43;19.10;;;;;;;;;;5033776;28;20457;-81
2023/12/18 02:17:59;;;;;;;40.47;22.10;;;;;;;;;;5033808;28;20468;-82
2023/12/18 02:20:25;;;;;;;40.73;19.30;;;;;;;;;;5032702;28;20828;-82
2023/12/18 02:22:53;;;;;;;30.83;19.47;;;;;;;;;;5032271;28;21070;-81
2023/12/18 02:25:20;;;;;;;36.93;21.60;;;;;;;;;;5033279;28;20460;-81
2023/12/18 02:27:48;;;;;;;38.57;20.10;;;;;;;;;;5033592;28;20559;-82
2023/12/18 02:30:15;;;;;;;38.73;21.40;;;;;;;;;;5033750;28;20445;-80
2023/12/18 02:32:43;;;;;;;38.83;21.13;;;;;;;;;;5031461;28;20526;-80
2023/12/18 02:35:10;;;;;;;40.50;22.40;;;;;;;;;;5033376;28;20490;-82
2023/12/18 02:37:38;;;;;;;37.30;22.63;;;;;;;;;;5031286;28;20460;-82
2023/12/18 02:40:08;;;;;;;40.10;20.87;;;;;;;;;;5032489;28;20531;-83
2023/12/18 02:42:36;;;;;;;36.93;22.13;;;;;;;;;;5032739;28;20449;-81
2023/12/18 02:45:02;;;;;;;41.70;20.77;;;;;;;;;;5032956;28;20979;-81
2023/12/18 02:47:29;;;;;;;34.30;19.47;;;;;;;;;;5032946;28;20543;-82
2023/12/18 02:49:55;;;;;;;43.33;22.70;;;;;;;;;;5033167;28;20440;-82
2023/12/18 02:52:23;;;;;;;36.47;21.90;;;;;;;;;;5032506;28;20433;-81
2023/12/18 02:54:50;;;;;;;29.90;20.30;;;;;;;;;;5033737;28;20488;-80
2023/12/18 02:57:17;;;;;;;41.83;21.60;;;;;;;;;;5036385;28;20448;-79
2023/12/18 02:59:44;;;;;;;42.90;22.10;;;;;;;;;;5036237;28;20432;-80
2023/12/18 03:02:10;;;;;;;41.80;23.90;;;;;;;;;;5036137;28;20441;-81
2023/12/18 03:04:39;;;;;;;35.80;22.20;;;;;;;;;;5035720;28;20551;-81
2023/12/18 03:07:05;;;;;;;45.17;23.53;;;;;;;;;;5035278;28;20960;-82
2023/12/18 03:09:32;;;;;;;40.07;21.80;;;;;;;;;;5035711;28;20539;-81
2023/12/18 03:11:58;;;;;;;41.03;22.67;;;;;;;;;;5035994;28;20812;-80
2023/12/18 03:14:26;;;;;;;34.53;21.20;;;;;;;;;;5035543;28;20568;-81
2023/12/18 03:16:53;;;;;;;36.20;22.80;;;;;;;;;;5036200;28;21026;-81
2023/12/18 03:19:19;;;;;;;35.03;21.23;;;;;;;;;;5035955;28;20496;-80
2023/12/18 03:21:48;;;;;;;40.43;23.13;;;;;;;;;;5036427;28;20448;-80
2023/12/18 03:24:15;;;;;;;39.07;23.10;;;;;;;;;;5035711;28;20500;-80
2023/12/18 03:26:42;;;;;;;37.43;25.03;;;;;;;;;;5035673;28;20439;-80
2023/12/18 03:29:09;;;;;;;50.53;22.20;;;;;;;;;;5035256;28;20895;-80
2023/12/18 03:31:38;;;;;;;50.37;24.00;;;;;;;;;;5035868;28;20436;-81
2023/12/18 03:34:04;;;;;;;43.93;25.30;;;;;;;;;;5035308;28;20472;-80
2023/12/18 03:36:31;;;;;;;46.13;23.43;;;;;;;;;;5035396;28;20803;-81
2023/12/18 03:38:58;;;;;;;36.90;23.30;;;;;;;;;;5033514;28;20476;-81
2023/12/18 03:41:24;;;;;;;42.73;23.40;;;;;;;;;;5035369;28;20443;-80
2023/12/18 03:43:51;;;;;;;42.67;22.70;;;;;;;;;;5035262;28;20471;-80
2023/12/18 03:46:18;;;;;;;43.80;24.27;;;;;;;;;;5035563;28;20444;-80
2023/12/18 03:48:46;;;;;;;48.00;24.67;;;;;;;;;;5033444;28;20848;-80
2023/12/18 03:51:12;;;;;;;46.63;25.40;;;;;;;;;;5035477;28;20435;-80
2023/12/18 03:53:40;;;;;;;43.07;24.60;;;;;;;;;;5034748;28;20473;-80
2023/12/18 03:56:08;;;;;;;41.80;24.37;;;;;;;;;;5035231;28;20440;-80
2023/12/18 03:58:35;;;;;;;44.60;26.27;;;;;;;;;;5034715;28;20464;-80
2023/12/18 04:01:02;;;;;;;49.03;25.50;;;;;;;;;;5035454;28;20447;-81
2023/12/18 04:03:28;;;;;;;54.80;27.10;;;;;;;;;;5034512;28;20479;-80
2023/12/18 04:05:56;;;;;;;44.57;26.40;;;;;;;;;;5034706;28;20453;-80
2023/12/18 04:08:23;;;;;;;36.80;22.50;;;;;;;;;;5033934;28;20519;-80
2023/12/18 04:10:49;;;;;;;34.63;23.87;;;;;;;;;;5034792;28;20977;-80
2023/12/18 04:13:15;;;;;;;47.70;26.07;;;;;;;;;;5034754;28;20471;-81
2023/12/18 04:15:42;;;;;;;53.43;26.63;;;;;;;;;;5035083;28;20603;-80
2023/12/18 04:18:09;;;;;;;41.17;25.23;;;;;;;;;;5034146;28;20468;-81
2023/12/18 04:20:35;;;;;;;40.33;24.03;;;;;;;;;;5034946;28;20843;-81
2023/12/18 04:23:03;;;;;;;59.07;26.17;;;;;;;;;;5034213;28;20473;-80
2023/12/18 04:25:30;;;;;;;47.30;24.27;;;;;;;;;;5034848;28;20504;-80
2023/12/18 04:27:56;;;;;;;42.67;26.87;;;;;;;;;;5034117;28;20461;-80
2023/12/18 04:30:24;;;;;;;48.23;26.43;;;;;;;;;;5033946;28;20479;-81
2023/12/18 04:32:52;;;;;;;37.23;25.50;;;;;;;;;;5034127;28;20473;-80
2023/12/18 04:35:18;;;;;;;48.17;27.40;;;;;;;;;;5035077;28;20489;-81
2023/12/18 04:37:45;;;;;;;44.33;27.20;;;;;;;;;;5034297;28;20464;-80
2023/12/18 04:40:13;;;;;;;46.60;26.20;;;;;;;;;;5034866;28;20532;-81
2023/12/18 04:42:40;;;;;;;43.07;26.00;;;;;;;;;;5034518;28;20460;-81
2023/12/18 04:45:07;;;;;;;41.50;24.80;;;;;;;;;;5034601;28;20503;-80
2023/12/18 04:47:34;;;;;;;49.63;27.87;;;;;;;;;;5034076;28;20459;-81
2023/12/18 04:50:00;;;;;;;45.43;25.37;;;;;;;;;;5034351;28;20449;-80
2023/12/18 04:52:28;;;;;;;45.93;26.80;;;;;;;;;;5035361;28;21092;-79
2023/12/18 04:54:55;;;;;;;50.57;27.53;;;;;;;;;;5037456;28;20495;-82
2023/12/18 04:57:23;;;;;;;48.00;26.53;;;;;;;;;;5034075;28;20453;-79
2023/12/18 04:59:49;;;;;;;48.10;28.03;;;;;;;;;;5034607;28;20440;-80
2023/12/18 05:02:16;;;;;;;48.80;28.13;;;;;;;;;;5033690;28;20441;-78
2023/12/18 05:04:42;;;;;;;46.17;27.43;;;;;;;;;;5034052;28;21057;-80
2023/12/18 05:07:11;;;;;;;44.90;27.20;;;;;;;;;;5034573;28;20960;-82
2023/12/18 05:09:39;;;;;;;51.30;27.53;;;;;;;;;;5032285;28;20552;-82
2023/12/18 05:12:06;;;;;;;55.90;27.50;;;;;;;;;;5033121;28;20444;-81
2023/12/18 05:14:34;;;;;;;49.33;26.87;;;;;;;;;;5033076;28;20483;-82
2023/12/18 05:17:00;;;;;;;48.87;28.03;;;;;;;;;;5033374;28;20443;-82
2023/12/18 05:19:28;;;;;;;44.97;26.70;;;;;;;;;;5033156;28;20480;-82
2023/12/18 05:21:55;;;;;;;51.30;31.00;;;;;;;;;;5033853;28;20445;-81
2023/12/18 05:24:21;;;;;;;53.57;25.70;;;;;;;;;;5033030;28;20473;-81
2023/12/18 05:26:48;;;;;;;48.93;28.57;;;;;;;;;;5033131;28;20532;-83
2023/12/18 05:29:14;;;;;;;55.20;27.80;;;;;;;;;;5031154;28;20465;-81
2023/12/18 05:31:42;;;;;;;47.07;26.47;;;;;;;;;;5033436;28;20812;-81
2023/12/18 05:34:09;;;;;;;40.90;27.80;;;;;;;;;;5033006;28;20559;-83
2023/12/18 05:36:35;;;;;;;42.87;28.20;;;;;;;;;;5033366;28;20429;-82
2023/12/18 05:39:02;;;;;;;44.23;26.97;;;;;;;;;;5031929;28;20469;-82
2023/12/18 05:41:32;;;;;;;47.10;27.73;;;;;;;;;;5040458;28;20907;-82
2023/12/18 05:43:58;;;;;;;55.00;27.47;;;;;;;;;;5033758;28;20542;-80
2023/12/18 05:46:24;;;;;;;50.10;29.33;;;;;;;;;;5032776;28;20433;-81
2023/12/18 05:48:53;;;;;;;66.33;30.00;;;;;;;;;;5033136;28;20998;-81
2023/12/18 05:51:19;;;;;;;52.97;29.93;;;;;;;;;;5033394;28;20445;-81
2023/12/18 05:53:45;;;;;;;51.00;29.47;;;;;;;;;;5032232;28;20469;-82
2023/12/18 05:56:12;;;;;;;57.23;30.40;;;;;;;;;;5033424;28;20484;-80
2023/12/18 05:58:38;;;;;;;52.10;29.40;;;;;;;;;;5032982;28;20469;-80
2023/12/18 06:01:05;;;;;;;47.30;28.53;;;;;;;;;;5032483;28;20817;-79
2023/12/18 06:03:31;;;;;;;53.53;29.97;;;;;;;;;;5031297;28;20461;-81
2023/12/18 06:05:59;;;;;;;50.43;29.30;;;;;;;;;;5032991;28;20464;-80
2023/12/18 06:08:25;;;;;;;56.17;28.97;;;;;;;;;;5034376;28;20467;-82
2023/12/18 06:10:54;;;;;;;45.57;28.30;;;;;;;;;;5033406;28;20441;-80
2023/12/18 06:13:20;;;;;;;43.83;28.27;;;;;;;;;;5032529;28;20552;-81
2023/12/18 06:15:47;;;;;;;49.07;27.63;;;;;;;;;;5033464;28;20499;-82
2023/12/18 06:18:13;;;;;;;53.40;27.40;;;;;;;;;;5032616;28;20552;-79
2023/12/18 06:20:40;;;;;;;50.50;29.20;;;;;;;;;;5032987;28;20943;-79
2023/12/18 06:23:08;;;;;;;46.50;28.50;;;;;;;;;;5032628;28;20495;-80
2023/12/18 06:25:36;;;;;;;47.40;27.23;;;;;;;;;;5033091;28;20465;-80
2023/12/18 06:28:03;;;;;;;43.40;26.37;;;;;;;;;;5032158;28;20472;-79
2023/12/18 06:30:30;;;;;;;48.90;26.53;;;;;;;;;;5034592;28;20441;-81
2023/12/18 06:32:56;;;;;;;53.80;30.03;;;;;;;;;;5036784;28;20471;-80
2023/12/18 06:35:24;;;;;;;44.87;29.17;;;;;;;;;;5036636;28;20495;-81
2023/12/18 06:37:52;;;;;;;45.97;29.20;;;;;;;;;;5035796;28;20543;-79
2023/12/18 06:40:19;;;;;;;46.97;25.30;;;;;;;;;;5036501;28;20440;-80
2023/12/18 06:42:46;;;;;;;50.27;27.00;;;;;;;;;;5036044;28;20551;-81
2023/12/18 06:45:13;;;;;;;45.07;28.40;;;;;;;;;;5036098;28;20463;-81
2023/12/18 06:47:40;;;;;;;52.57;28.27;;;;;;;;;;5036237;28;20468;-81
2023/12/18 06:50:07;;;;;;;45.13;25.10;;;;;;;;;;5036708;28;20440;-81
2023/12/18 06:52:33;;;;;;;48.53;30.53;;;;;;;;;;5035016;28;20467;-82
2023/12/18 06:55:02;;;;;;;49.03;27.10;;;;;;;;;;5036587;28;20495;-82
2023/12/18 06:57:34;;;;;;;43.97;26.03;;;;;;;;;;5035641;28;20540;-82
2023/12/18 07:00:00;;;;;;;46.47;26.90;;;;;;;;;;5036872;28;20427;-81
2023/12/18 07:02:27;;;;;;;48.53;25.77;;;;;;;;;;5036281;28;20448;-82
2023/12/18 07:04:53;;;;;;;55.10;28.50;;;;;;;;;;5036320;28;20460;-80
2023/12/18 07:07:21;;;;;;;47.80;26.90;;;;;;;;;;5036753;28;20439;-80
2023/12/18 07:09:48;;;;;;;55.87;27.17;;;;;;;;;;5035820;28;20449;-80
2023/12/18 07:12:16;;;;;;;44.37;25.57;;;;;;;;;;5036344;28;20510;-79
2023/12/18 07:14:44;;;;;;;42.70;26.47;;;;;;;;;;5036651;28;20475;-81
2023/12/18 07:17:10;;;;;;;36.10;24.70;;;;;;;;;;5036155;28;20437;-81
2023/12/18 07:19:38;;;;;;;54.87;29.77;;;;;;;;;;5036127;28;20469;-80
2023/12/18 07:22:05;;;;;;;37.63;24.73;;;;;;;;;;5036312;28;20443;-81
2023/12/18 07:24:31;;;;;;;46.50;25.53;;;;;;;;;;5035258;28;20531;-81
2023/12/18 07:26:58;;;;;;;43.93;27.33;;;;;;;;;;5036110;28;20443;-81
2023/12/18 07:29:24;;;;;;;47.43;24.17;;;;;;;;;;5033980;28;20468;-81
2023/12/18 07:31:54;;;;;;;49.17;27.23;;;;;;;;;;5035852;28;20443;-81
2023/12/18 07:34:20;;;;;;;42.40;26.40;;;;;;;;;;5034931;28;20483;-80
2023/12/18 07:36:47;;;;;;;45.17;27.13;;;;;;;;;;5035446;28;21028;-81
2023/12/18 07:39:13;;;;;;;45.10;26.20;;;;;;;;;;5034929;28;20475;-80
2023/12/18 07:41:40;;;;;;;37.80;25.40;;;;;;;;;;5034565;28;20524;-79
2023/12/18 07:44:07;;;;;;;45.30;26.87;;;;;;;;;;5035978;28;20477;-81
2023/12/18 07:46:34;;;;;;;39.43;25.20;;;;;;;;;;5035338;28;20439;-82
2023/12/18 07:49:02;;;;;;;48.90;26.60;;;;;;;;;;5035367;28;20469;-81
2023/12/18 07:51:29;;;;;;;39.77;26.07;;;;;;;;;;5035685;28;20445;-81
2023/12/18 07:53:55;;;;;;;43.20;25.50;;;;;;;;;;5035167;28;20838;-81
2023/12/18 07:56:22;;;;;;;34.30;22.60;;;;;;;;;;5035169;28;20994;-79
2023/12/18 07:58:49;;;;;;;44.83;25.40;;;;;;;;;;5034942;28;20480;-80
2023/12/18 08:01:16;;;;;;;41.93;24.10;;;;;;;;;;5034993;28;20445;-81
2023/12/18 08:03:44;;;;;;;49.03;24.43;;;;;;;;;;5034753;28;20552;-81
2023/12/18 08:06:12;;;;;;;48.83;25.80;;;;;;;;;;5035060;28;20464;-82
2023/12/18 08:08:39;;;;;;;38.63;25.07;;;;;;;;;;5034084;28;20548;-81
2023/12/18 08:11:05;;;;;;;46.53;25.20;;;;;;;;;;5035370;28;20441;-80
2023/12/18 08:13:37;;;;;;;44.40;24.57;;;;;;;;;;5034834;28;20469;-82
2023/12/18 08:16:04;;;;;;;40.83;25.23;;;;;;;;;;5034927;28;20982;-81
2023/12/18 08:18:31;;;;;;;43.23;25.80;;;;;;;;;;5033325;28;20467;-82
2023/12/18 08:20:57;;;;;;;45.33;25.73;;;;;;;;;;5034902;28;20444;-81
2023/12/18 08:23:26;;;;;;;49.60;26.90;;;;;;;;;;5034320;28;20467;-81
2023/12/18 08:25:53;;;;;;;39.83;26.03;;;;;;;;;;5034464;28;20467;-81
2023/12/18 08:28:19;;;;;;;39.40;25.97;;;;;;;;;;5034020;28;20465;-81
2023/12/18 08:30:45;;;;;;;40.97;24.90;;;;;;;;;;5033620;28;20870;-81
2023/12/18 08:33:12;;;;;;;50.47;26.20;;;;;;;;;;5034128;28;20467;-81
2023/12/18 08:35:39;;;;;;;36.67;23.50;;;;;;;;;;5034518;28;20512;-81
2023/12/18 08:38:06;;;;;;;38.83;23.80;;;;;;;;;;5034210;28;20471;-81
2023/12/18 08:40:34;;;;;;;44.83;23.23;;;;;;;;;;5033016;28;20444;-81
2023/12/18 08:43:00;;;;;;;44.63;24.87;;;;;;;;;;5034134;28;20461;-81
2023/12/18 08:45:27;;;;;;;47.93;25.60;;;;;;;;;;5034082;28;20993;-81
2023/12/18 08:47:54;;;;;;;41.53;24.30;;;;;;;;;;5034084;28;20472;-81
2023/12/18 08:50:23;;;;;;;45.97;25.20;;;;;;;;;;5034343;28;20480;-81
2023/12/18 08:52:50;;;;;;;43.90;25.07;;;;;;;;;;5033265;28;20461;-81
2023/12/18 08:55:17;;;;;;;39.53;26.50;;;;;;;;;;5030843;28;20492;-80
2023/12/18 08:57:45;;;;;;;41.80;24.07;;;;;;;;;;5033514;28;20456;-81
2023/12/18 09:00:12;;;;;;;40.17;26.47;;;;;;;;;;5034095;28;20445;-81
2023/12/18 09:02:39;;;;;;;52.97;26.57;;;;;;;;;;5034147;28;20545;-81
2023/12/18 09:05:06;;;;;;;46.43;24.10;;;;;;;;;;5034000;28;20467;-81
2023/12/18 09:07:32;;;;;;;44.83;25.03;;;;;;;;;;5033287;28;20465;-81
2023/12/18 09:09:58;;;;;;;54.90;26.40;;;;;;;;;;5033716;28;20536;-81
2023/12/18 09:12:25;;;;;;;47.63;25.30;;;;;;;;;;5033356;28;20998;-81
2023/12/18 09:14:53;;;;;;;44.73;25.43;;;;;;;;;;5033916;28;20461;-81
2023/12/18 09:17:19;;;;;;;37.20;25.20;;;;;;;;;;5033502;28;20842;-81
2023/12/18 09:19:47;;;;;;;54.10;24.87;;;;;;;;;;5033902;28;20541;-81
2023/12/18 09:22:14;;;;;;;49.93;26.57;;;;;;;;;;5033672;28;20475;-81
2023/12/18 09:24:40;;;;;;;46.63;26.67;;;;;;;;;;5033383;28;20456;-81
2023/12/18 09:27:06;;;;;;;48.53;25.43;;;;;;;;;;5033255;28;20473;-81
2023/12/18 09:29:34;;;;;;;41.47;23.70;;;;;;;;;;5033483;28;20439;-82
2023/12/18 09:32:03;;;;;;;41.67;25.87;;;;;;;;;;5033450;28;20506;-81
2023/12/18 09:34:30;;;;;;;45.43;26.83;;;;;;;;;;5034204;28;20548;-80
2023/12/18 09:36:57;;;;;;;41.10;25.57;;;;;;;;;;5033239;28;21010;-80
2023/12/18 09:39:23;;;;;;;38.17;24.50;;;;;;;;;;5033314;28;20447;-81
2023/12/18 09:41:50;;;;;;;41.63;24.97;;;;;;;;;;5032944;28;20512;-80
2023/12/18 09:44:16;;;;;;;44.40;25.40;;;;;;;;;;5033543;28;20453;-82
2023/12/18 09:46:44;;;;;;;49.60;25.43;;;;;;;;;;5033057;28;20472;-80
2023/12/18 09:49:12;;;;;;;46.80;24.30;;;;;;;;;;5033560;28;20440;-80
2023/12/18 09:51:40;;;;;;;43.30;27.53;;;;;;;;;;5032934;28;20468;-80
2023/12/18 09:54:06;;;;;;;42.13;25.10;;;;;;;;;;5034056;28;20830;-80
2023/12/18 09:56:33;;;;;;;41.90;24.43;;;;;;;;;;5033097;28;20503;-79
2023/12/18 09:59:00;;;;;;;52.70;28.97;;;;;;;;;;5033485;28;20447;-80
2023/12/18 10:01:27;;;;;;;58.70;27.20;;;;;;;;;;5032821;28;20846;-80
2023/12/18 10:03:53;;;;;;;51.03;27.10;;;;;;;;;;5033222;28;20953;-82
2023/12/18 10:06:21;;;;;;;43.07;26.10;;;;;;;;;;5036040;28;20554;-80
2023/12/18 10:08:50;;;;;;;46.40;27.80;;;;;;;;;;5037021;28;20451;-80
2023/12/18 10:11:23;;;;;;;45.73;26.13;;;;;;;;;;5035189;28;20479;-80
2023/12/18 10:13:50;;;;;;;50.20;28.50;;;;;;;;;;5037218;28;20428;-80
2023/12/18 10:16:16;;;;;;;50.67;26.13;;;;;;;;;;5036839;28;20487;-80
2023/12/18 10:18:45;;;;;;;55.00;26.93;;;;;;;;;;5037331;28;20443;-80
2023/12/18 10:21:12;;;;;;;46.47;25.40;;;;;;;;;;5037108;28;20476;-80
2023/12/18 10:23:41;;;;;;;55.33;26.77;;;;;;;;;;5037648;28;20440;-80
2023/12/18 10:26:07;;;;;;;39.70;25.50;;;;;;;;;;5036931;28;20464;-80
2023/12/18 10:28:34;;;;;;;47.97;26.43;;;;;;;;;;5037549;28;20436;-81
2023/12/18 10:31:00;;;;;;;45.10;25.30;;;;;;;;;;5036755;28;20819;-81
2023/12/18 10:33:26;;;;;;;51.80;25.60;;;;;;;;;;5036994;28;20452;-81
2023/12/18 10:35:53;;;;;;;41.13;24.57;;;;;;;;;;5036307;28;20477;-81
2023/12/18 10:38:23;;;;;;;51.73;25.00;;;;;;;;;;5037017;28;20519;-82
2023/12/18 10:40:55;;;;;;;51.77;26.43;;;;;;;;;;5036355;28;20483;-81
2023/12/18 10:43:22;;;;;;;52.90;25.73;;;;;;;;;;5036842;28;20508;-82
2023/12/18 10:45:49;;;;;;;45.53;23.50;;;;;;;;;;5036172;28;20488;-82
2023/12/18 10:48:17;;;;;;;49.00;27.17;;;;;;;;;;5036911;28;20437;-81
2023/12/18 10:50:46;;;;;;;53.40;27.20;;;;;;;;;;5036296;28;20468;-82
2023/12/18 10:53:13;;;;;;;47.93;25.00;;;;;;;;;;5036851;28;20527;-81
2023/12/18 10:55:41;;;;;;;45.57;24.40;;;;;;;;;;5034988;28;20544;-79
2023/12/18 10:58:09;;;;;;;45.13;25.83;;;;;;;;;;5036282;28;20539;-79
2023/12/18 11:00:37;;;;;;;53.50;29.43;;;;;;;;;;5036157;28;20481;-81
2023/12/18 11:03:03;;;;;;;51.20;25.10;;;;;;;;;;5036592;28;20436;-79
2023/12/18 11:05:31;;;;;;;49.73;24.80;;;;;;;;;;5036268;28;20553;-82
2023/12/18 11:07:58;;;;;;;46.30;27.03;;;;;;;;;;5036379;28;20473;-81
2023/12/18 11:10:26;;;;;;;42.00;25.63;;;;;;;;;;5035644;28;20960;-80
2023/12/18 11:12:54;;;;;;;44.47;26.93;;;;;;;;;;5036372;28;20454;-81
2023/12/18 11:15:30;;;;;;;44.90;25.67;;;;;;;;;;5035513;28;20499;-80
2023/12/18 11:18:00;;;;;;;53.57;26.70;;;;;;;;;;5036155;28;20460;-82
2023/12/18 11:20:29;;;;;;;49.70;25.87;;;;;;;;;;5035088;28;20444;-82
2023/12/18 11:22:57;;;;;;;45.30;26.43;;;;;;;;;;5035947;28;20452;-82
2023/12/18 11:25:27;;;;;;;49.87;27.47;;;;;;;;;;5035667;28;20460;-81
2023/12/18 11:27:54;;;;;;;43.37;24.83;;;;;;;;;;5035675;28;20868;-82
2023/12/18 11:30:27;;;;;;;54.10;26.80;;;;;;;;;;5035623;28;20437;-80
2023/12/18 11:32:54;;;;;;;48.73;25.60;;;;;;;;;;5035532;28;20814;-81
2023/12/18 11:35:26;;;;;;;56.30;28.10;;;;;;;;;;5034713;28;20461;-79
2023/12/18 11:37:52;;;;;;;50.10;26.03;;;;;;;;;;5035340;28;20504;-81
2023/12/18 11:40:39;;;;;;;47.63;26.80;;;;;;;;;;5035294;28;20883;-81
2023/12/18 11:43:06;;;;;;;47.63;26.10;;;;;;;;;;5035863;28;20425;-81
2023/12/18 11:45:35;;;;;;;55.93;29.57;;;;;;;;;;5034893;28;20535;-82
2023/12/18 11:48:02;;;;;;;47.27;26.37;;;;;;;;;;5035494;28;20444;-81
2023/12/18 11:50:31;;;;;;;53.23;26.40;;;;;;;;;;5035972;28;20473;-79
2023/12/18 11:52:58;;;;;;;47.43;28.27;;;;;;;;;;5035963;28;20441;-81
2023/12/18 11:55:41;;;;;;;57.60;25.87;;;;;;;;;;5035309;28;20463;-81
2023/12/18 11:58:08;;;;;;;47.47;26.80;;;;;;;;;;5035512;28;20491;-82
2023/12/18 12:00:36;;;;;;;54.83;27.47;;;;;;;;;;5035150;28;20475;-80
2023/12/18 12:03:03;;;;;;;51.23;28.27;;;;;;;;;;5035368;28;20443;-81
2023/12/18 12:05:30;;;;;;;53.57;26.60;;;;;;;;;;5034838;28;20461;-81
2023/12/18 12:07:57;;;;;;;49.00;25.07;;;;;;;;;;5035257;28;20437;-81
2023/12/18 12:10:26;;;;;;;50.20;26.80;;;;;;;;;;5035433;28;20810;-80
2023/12/18 12:12:53;;;;;;;49.30;25.93;;;;;;;;;;5035530;28;20448;-80
2023/12/18 12:15:22;;;;;;;47.40;25.63;;;;;;;;;;5035010;28;20467;-79
2023/12/18 12:17:52;;;;;;;41.07;27.20;;;;;;;;;;5035495;28;20535;-80
2023/12/18 12:20:18;;;;;;;50.03;28.80;;;;;;;;;;5035224;28;20879;-80
2023/12/18 12:22:45;;;;;;;57.97;26.47;;;;;;;;;;5035095;28;20537;-81
2023/12/18 12:25:11;;;;;;;46.50;27.00;;;;;;;;;;5034920;28;20903;-80
2023/12/18 12:27:38;;;;;;;49.13;24.70;;;;;;;;;;5033282;28;20548;-79
2023/12/18 12:30:05;;;;;;;53.90;27.07;;;;;;;;;;5033857;28;20436;-79
2023/12/18 12:32:32;;;;;;;50.33;27.10;;;;;;;;;;5033918;28;20473;-78
2023/12/18 12:35:00;;;;;;;46.60;25.47;;;;;;;;;;5033143;28;20460;-78
2023/12/18 12:37:27;;;;;;;50.70;26.47;;;;;;;;;;5034571;28;20563;-79
2023/12/18 12:40:00;;;;;;;54.03;27.70;;;;;;;;;;5033497;28;20439;-79
2023/12/18 12:42:28;;;;;;;47.17;27.03;;;;;;;;;;5034421;28;20472;-79
2023/12/18 12:44:56;;;;;;;38.30;24.63;;;;;;;;;;5038759;28;20460;-81
2023/12/18 12:47:22;;;;;;;43.63;24.60;;;;;;;;;;5034132;28;20475;-80
2023/12/18 12:49:51;;;;;;;67.60;30.20;;;;;;;;;;5034369;28;20459;-80
2023/12/18 12:52:19;;;;;;;41.57;25.60;;;;;;;;;;5036489;28;20477;-79
2023/12/18 12:54:45;;;;;;;56.13;26.20;;;;;;;;;;5034236;28;20452;-79
2023/12/18 12:57:12;;;;;;;45.07;27.70;;;;;;;;;;5033406;28;20476;-79
2023/12/18 12:59:50;;;;;;;50.33;26.00;;;;;;;;;;5032997;28;20448;-79
2023/12/18 13:02:16;;;;;;;55.40;25.37;;;;;;;;;;5033507;28;20898;-79
2023/12/18 13:04:44;;;;;;;44.83;26.87;;;;;;;;;;5033605;28;20453;-78
2023/12/18 13:07:11;;;;;;;47.60;26.50;;;;;;;;;;5033652;28;20477;-79
2023/12/18 13:09:39;;;;;;;52.70;25.60;;;;;;;;;;5033757;28;20441;-78
2023/12/18 13:12:06;;;;;;;58.53;29.40;;;;;;;;;;5033132;28;20870;-79
2023/12/18 13:14:35;;;;;;;46.80;25.60;;;;;;;;;;5032916;28;20560;-79
2023/12/18 13:17:02;;;;;;;45.90;25.23;;;;;;;;;;5033816;28;20530;-79
2023/12/18 13:19:29;;;;;;;43.60;25.77;;;;;;;;;;5033773;28;20540;-78
2023/12/18 13:21:56;;;;;;;52.00;27.20;;;;;;;;;;5033247;28;20483;-78
2023/12/18 13:24:22;;;;;;;56.90;29.13;;;;;;;;;;5034212;28;20822;-79
2023/12/18 13:26:51;;;;;;;49.50;26.60;;;;;;;;;;5032717;28;20472;-79
2023/12/18 13:29:17;;;;;;;46.23;26.00;;;;;;;;;;5032884;28;20437;-79
2023/12/18 13:31:44;;;;;;;47.00;26.93;;;;;;;;;;5033257;28;20891;-79
2023/12/18 13:34:10;;;;;;;47.63;25.80;;;;;;;;;;5033248;28;21045;-79
2023/12/18 13:36:38;;;;;;;49.93;25.43;;;;;;;;;;5032837;28;20479;-79
2023/12/18 13:39:04;;;;;;;52.63;27.53;;;;;;;;;;5033371;28;20437;-79
2023/12/18 13:41:32;;;;;;;64.43;27.17;;;;;;;;;;5032640;28;20475;-79
2023/12/18 13:44:00;;;;;;;47.43;26.87;;;;;;;;;;5034154;28;20523;-80
2023/12/18 13:46:26;;;;;;;47.70;26.10;;;;;;;;;;5033227;28;20911;-78
2023/12/18 13:48:53;;;;;;;52.47;25.43;;;;;;;;;;5032875;28;20451;-81
2023/12/18 13:51:19;;;;;;;47.70;27.27;;;;;;;;;;5033824;28;20475;-80
2023/12/18 13:53:47;;;;;;;41.23;25.40;;;;;;;;;;5033705;28;20451;-81
2023/12/18 13:56:14;;;;;;;48.60;25.10;;;;;;;;;;5033411;28;20476;-80
2023/12/18 13:58:40;;;;;;;45.60;27.73;;;;;;;;;;5034085;28;20471;-80
2023/12/18 14:01:08;;;;;;;40.67;27.27;;;;;;;;;;5033102;28;20819;-80
2023/12/18 14:03:38;;;;;;;49.43;28.07;;;;;;;;;;5033315;28;20448;-80
2023/12/18 14:06:05;;;;;;;55.37;29.70;;;;;;;;;;5030397;28;20499;-80
2023/12/18 14:08:31;;;;;;;52.33;28.23;;;;;;;;;;5034792;28;20519;-81
2023/12/18 14:10:58;;;;;;;47.80;26.47;;;;;;;;;;5033143;28;20890;-80
2023/12/18 14:13:25;;;;;;;49.33;25.83;;;;;;;;;;5033817;28;20441;-80
2023/12/18 14:15:51;;;;;;;42.00;26.80;;;;;;;;;;5033587;28;20469;-81